Time;durP1;ratioP1;P1;durP2;ratioP2;P2;SDS_P1;SDS_P2;PMS_P1;PMS_P2;Temp;Humidity;BMP_temperature;BMP_pressure;BME280_temperature;BME280_humidity;BME280_pressure;Samples;Min_cycle;Max_cycle;Signal;HPM_P1;HPM_P2
2022/08/11 00:01:50;;;;;;;1.27;1.25;;;18.50;54.20;;;;;;601979;239;26900;-62
2022/08/11 00:04:18;;;;;;;1.75;1.50;;;18.50;54.30;;;;;;613020;235;26544;-62
2022/08/11 00:06:45;;;;;;;1.50;1.40;;;18.50;54.30;;;;;;601409;239;26786;-62
2022/08/11 00:09:17;;;;;;;1.60;1.50;;;18.50;54.40;;;;;;601288;239;26580;-62
2022/08/11 00:11:45;;;;;;;1.60;1.50;;;18.40;54.50;;;;;;601215;239;26576;-62
2022/08/11 00:14:20;;;;;;;1.60;1.50;;;18.40;54.70;;;;;;601198;239;26626;-62
2022/08/11 00:16:53;;;;;;;1.50;1.50;;;18.30;54.80;;;;;;601398;239;26619;-64
2022/08/11 00:19:21;;;;;;;1.75;1.50;;;18.30;54.80;;;;;;601702;239;26877;-65
2022/08/11 00:21:48;;;;;;;2.00;1.77;;;18.20;54.90;;;;;;601650;239;26834;-63
2022/08/11 00:24:15;;;;;;;4.30;1.52;;;18.20;55.00;;;;;;601646;239;26828;-63
2022/08/11 00:26:43;;;;;;;3.83;1.80;;;18.20;55.00;;;;;;601688;239;26549;-63
2022/08/11 00:29:11;;;;;;;1.17;1.17;;;18.10;55.30;;;;;;601255;239;26849;-62
2022/08/11 00:31:38;;;;;;;2.78;1.60;;;18.00;55.40;;;;;;612768;235;26544;-63
2022/08/11 00:34:05;;;;;;;1.62;1.52;;;18.00;55.50;;;;;;601456;239;27316;-63
2022/08/11 00:36:38;;;;;;;2.97;1.70;;;17.90;55.70;;;;;;613736;232;26555;-63
2022/08/11 00:39:05;;;;;;;3.03;1.40;;;17.90;55.70;;;;;;602787;238;26782;-62
2022/08/11 00:42:07;;;;;;;1.92;1.70;;;17.90;56.10;;;;;;613722;234;26550;-63
2022/08/11 00:44:37;;;;;;;3.05;1.40;;;17.90;55.90;;;;;;624401;229;26631;-63
2022/08/11 00:47:28;;;;;;;2.20;1.70;;;17.90;55.90;;;;;;624692;229;26517;-63
2022/08/11 00:50:16;;;;;;;2.33;1.60;;;17.90;55.90;;;;;;617590;230;26616;-63
2022/08/11 00:52:54;;;;;;;2.08;1.40;;;17.90;55.90;;;;;;594111;238;26868;-63
2022/08/11 00:55:50;;;;;;;1.80;1.70;;;17.90;55.90;;;;;;627535;229;26582;-63
2022/08/11 00:58:52;;;;;;;1.40;1.30;;;17.80;56.10;;;;;;618223;230;26570;-63
2022/08/11 01:01:21;;;;;;;1.60;1.50;;;17.70;56.30;;;;;;618198;230;26613;-64
2022/08/11 01:04:02;;;;;;;1.62;1.52;;;17.60;56.50;;;;;;601271;239;26891;-63
2022/08/11 01:07:04;;;;;;;1.55;1.42;;;17.60;56.90;;;;;;627413;229;26593;-62
2022/08/11 01:09:43;;;;;;;1.48;1.40;;;17.60;56.90;;;;;;624514;230;26556;-65
2022/08/11 01:12:21;;;;;;;1.40;1.30;;;17.60;56.90;;;;;;624295;230;26587;-66
2022/08/11 01:14:58;;;;;;;1.50;1.40;;;17.60;57.10;;;;;;601331;237;26614;-66
2022/08/11 01:17:41;;;;;;;1.60;1.50;;;17.60;57.00;;;;;;626692;229;26527;-66
2022/08/11 01:20:14;;;;;;;1.33;1.23;;;17.50;57.10;;;;;;617129;230;26625;-66
2022/08/11 01:22:49;;;;;;;1.50;1.40;;;17.50;57.20;;;;;;623499;230;26812;-66
2022/08/11 01:25:36;;;;;;;1.37;1.27;;;17.50;57.30;;;;;;600901;239;26576;-66
2022/08/11 01:28:24;;;;;;;1.58;1.48;;;17.40;57.40;;;;;;623798;229;26553;-66
2022/08/11 01:31:30;;;;;;;1.20;1.20;;;17.40;57.50;;;;;;618041;230;26598;-65
2022/08/11 01:34:19;;;;;;;1.40;1.30;;;17.40;57.50;;;;;;622557;230;26970;-66
2022/08/11 01:36:50;;;;;;;2.17;1.55;;;17.40;58.10;;;;;;593455;238;26639;-66
2022/08/11 01:39:26;;;;;;;1.62;1.40;;;17.40;57.80;;;;;;626736;229;26513;-65
2022/08/11 01:45:06;;;;;;;1.30;1.30;;;17.30;58.00;;;;;;618461;230;26651;-66
2022/08/11 01:47:49;;;;;;;1.50;1.40;;;17.30;58.20;;;;;;601834;237;26646;-66
2022/08/11 01:50:55;;;;;;;1.48;1.37;;;17.30;58.20;;;;;;629251;228;26535;-66
2022/08/11 01:53:30;;;;;;;1.37;1.35;;;17.30;58.20;;;;;;617672;230;26662;-65
2022/08/11 01:56:05;;;;;;;1.20;1.20;;;17.30;58.30;;;;;;625045;230;26607;-65
2022/08/11 01:58:35;;;;;;;1.20;1.20;;;17.30;58.20;;;;;;601425;239;26780;-66
2022/08/11 02:01:19;;;;;;;1.52;1.42;;;17.30;58.50;;;;;;602110;239;26635;-66
2022/08/11 02:03:50;;;;;;;1.30;1.20;;;17.20;58.60;;;;;;604982;234;26567;-66
2022/08/11 02:09:12;;;;;;;1.50;1.40;;;17.20;58.70;;;;;;594073;239;27069;-65
2022/08/11 02:11:40;;;;;;;1.60;1.45;;;17.20;58.60;;;;;;601469;239;26639;-69
2022/08/11 02:14:19;;;;;;;1.80;1.70;;;17.20;58.60;;;;;;601641;239;26684;-66
2022/08/11 02:16:48;;;;;;;1.50;1.40;;;17.20;58.80;;;;;;601347;239;26600;-65
2022/08/11 02:25:11;;;;;;;2.92;1.40;;;17.10;58.60;;;;;;601391;239;26603;-63
2022/08/11 02:27:41;;;;;;;1.70;1.60;;;17.10;59.00;;;;;;601368;239;26588;-63
2022/08/11 02:30:10;;;;;;;1.90;1.30;;;17.10;58.80;;;;;;601231;239;26806;-63
2022/08/11 02:35:35;;;;;;;1.60;1.50;;;17.00;58.90;;;;;;600590;239;26867;-63
2022/08/11 02:38:23;;;;;;;1.30;1.30;;;17.00;58.90;;;;;;601078;239;26788;-63
2022/08/11 02:40:48;;;;;;;1.70;1.40;;;17.00;59.00;;;;;;597619;234;26551;-63
2022/08/11 02:43:41;;;;;;;1.62;1.52;;;16.90;59.30;;;;;;600472;239;26600;-63
2022/08/11 02:46:16;;;;;;;1.42;1.27;;;16.90;59.30;;;;;;600399;239;26607;-63
2022/08/11 02:51:31;;;;;;;1.05;1.05;;;16.90;59.50;;;;;;601336;239;26874;-63
2022/08/11 02:54:08;;;;;;;1.55;1.45;;;16.90;59.40;;;;;;601338;239;26603;-63
2022/08/11 02:56:43;;;;;;;3.15;1.50;;;16.80;59.50;;;;;;601433;239;26845;-63
2022/08/11 03:01:40;;;;;;;2.22;1.70;;;16.90;59.70;;;;;;602641;238;26597;-63
2022/08/11 03:04:08;;;;;;;1.55;1.40;;;17.00;59.80;;;;;;601280;239;26600;-63
2022/08/11 03:06:38;;;;;;;1.58;1.48;;;17.00;59.60;;;;;;601681;239;26568;-64
2022/08/11 03:09:16;;;;;;;1.30;1.20;;;17.00;59.90;;;;;;601533;239;26540;-63
2022/08/11 03:17:40;;;;;;;1.73;1.30;;;16.90;59.80;;;;;;607165;234;26615;-63
2022/08/11 03:20:14;;;;;;;2.60;1.42;;;16.90;59.90;;;;;;601878;232;26574;-64
2022/08/11 03:22:49;;;;;;;1.20;1.20;;;16.90;59.90;;;;;;612506;235;27000;-64
2022/08/11 03:25:17;;;;;;;1.30;1.20;;;16.90;60.10;;;;;;628164;229;26615;-64
2022/08/11 03:28:03;;;;;;;1.70;1.58;;;16.90;60.30;;;;;;624350;230;26598;-64
2022/08/11 03:30:51;;;;;;;2.28;1.62;;;16.90;59.90;;;;;;624296;230;26549;-64
2022/08/11 03:36:04;;;;;;;2.12;1.60;;;16.90;59.90;;;;;;628187;229;26786;-64
2022/08/11 03:38:31;;;;;;;1.42;1.33;;;16.80;59.90;;;;;;623258;230;27249;-62
2022/08/11 03:43:54;;;;;;;2.05;1.80;;;16.80;60.00;;;;;;601251;239;26619;-63
2022/08/11 03:46:28;;;;;;;1.85;1.73;;;16.70;60.60;;;;;;628145;229;26550;-63
2022/08/11 03:49:26;;;;;;;1.30;1.30;;;16.80;60.40;;;;;;624094;230;26604;-63
2022/08/11 03:51:53;;;;;;;2.17;1.67;;;16.80;60.10;;;;;;616883;230;27104;-63
2022/08/11 03:54:26;;;;;;;1.40;1.40;;;16.90;60.40;;;;;;601132;239;26577;-63
2022/08/11 03:57:15;;;;;;;1.90;1.73;;;16.90;60.20;;;;;;601633;239;26571;-63
2022/08/11 04:00:07;;;;;;;1.40;1.30;;;16.90;59.80;;;;;;604704;235;26593;-63
2022/08/11 04:02:57;;;;;;;1.95;1.67;;;16.90;60.30;;;;;;600750;239;26575;-63
2022/08/11 04:05:41;;;;;;;1.55;1.45;;;16.90;60.30;;;;;;597754;239;26843;-63
2022/08/11 04:08:20;;;;;;;2.87;1.70;;;16.90;60.10;;;;;;600794;239;26621;-63
2022/08/11 04:11:09;;;;;;;1.98;1.73;;;16.90;60.20;;;;;;602143;237;26538;-63
2022/08/11 04:15:58;;;;;;;1.80;1.45;;;16.90;60.40;;;;;;599085;239;26653;-63
2022/08/11 04:16:41;;;;;;;1.62;1.52;;;16.90;60.10;;;;;;594775;239;26606;-63
2022/08/11 04:19:29;;;;;;;2.05;1.52;;;16.80;61.00;;;;;;594263;239;26612;-63
2022/08/11 04:22:12;;;;;;;1.52;1.42;;;16.90;60.50;;;;;;593258;239;26642;-63
2022/08/11 04:24:59;;;;;;;1.60;1.42;;;16.90;60.30;;;;;;594159;239;26612;-63
2022/08/11 04:27:42;;;;;;;1.60;1.50;;;16.80;60.40;;;;;;602231;239;26531;-63
2022/08/11 04:30:16;;;;;;;1.55;1.45;;;16.90;60.90;;;;;;600707;239;26623;-63
2022/08/11 04:32:58;;;;;;;2.00;1.65;;;16.90;60.70;;;;;;601466;239;26623;-63
2022/08/11 04:35:49;;;;;;;1.90;1.80;;;16.90;60.80;;;;;;593226;239;26650;-63
2022/08/11 04:38:33;;;;;;;1.73;1.62;;;17.00;61.00;;;;;;601163;239;26618;-63
2022/08/11 04:41:13;;;;;;;1.73;1.62;;;17.10;60.00;;;;;;597226;239;26649;-63
2022/08/11 04:43:56;;;;;;;1.40;1.40;;;17.20;59.50;;;;;;601097;239;26639;-63
2022/08/11 04:46:43;;;;;;;1.92;1.83;;;17.20;59.60;;;;;;600700;239;26632;-63
2022/08/11 05:03:25;;;;;;;2.10;1.87;;;17.70;58.50;;;;;;601367;239;26607;-63
2022/08/11 05:05:58;;;;;;;5.40;2.20;;;17.70;58.30;;;;;;600609;239;26562;-63
2022/08/11 05:08:38;;;;;;;2.20;1.85;;;17.80;58.10;;;;;;600295;239;26609;-63
2022/08/11 05:11:26;;;;;;;2.00;1.87;;;17.90;58.00;;;;;;600446;239;26580;-64
2022/08/11 05:35:12;;;;;;;2.78;2.20;;;18.70;56.40;;;;;;601914;239;26599;-64
2022/08/11 05:37:41;;;;;;;2.35;2.15;;;18.80;56.90;;;;;;601850;239;26580;-64
2022/08/11 05:58:02;;;;;;;2.40;2.17;;;19.50;55.30;;;;;;601864;239;26528;-64
2022/08/11 06:00:29;;;;;;;2.00;1.90;;;19.70;55.20;;;;;;601628;239;26799;-63
2022/08/11 06:02:58;;;;;;;2.05;1.95;;;19.80;55.00;;;;;;601634;239;26545;-63
2022/08/11 06:05:25;;;;;;;3.55;2.12;;;19.90;54.80;;;;;;601624;233;26545;-63
2022/08/11 06:07:53;;;;;;;2.00;1.90;;;20.10;54.70;;;;;;600718;237;26587;-63
2022/08/11 06:10:26;;;;;;;2.78;2.58;;;20.00;54.20;;;;;;601393;239;26612;-64
2022/08/11 06:12:55;;;;;;;2.60;2.40;;;20.30;53.90;;;;;;601189;239;26625;-63
2022/08/11 06:15:22;;;;;;;2.08;1.98;;;20.30;53.90;;;;;;601373;233;26595;-63
2022/08/11 06:17:50;;;;;;;2.62;2.35;;;20.40;53.80;;;;;;601357;239;26579;-63
2022/08/11 06:20:17;;;;;;;3.17;2.28;;;20.50;53.50;;;;;;601398;239;26823;-63
2022/08/11 06:22:46;;;;;;;2.35;2.20;;;20.60;53.30;;;;;;601357;239;26545;-62
2022/08/11 06:25:12;;;;;;;2.08;1.90;;;20.70;53.10;;;;;;601234;239;27242;-68
2022/08/11 06:27:39;;;;;;;2.35;2.22;;;20.80;53.00;;;;;;601438;239;26615;-63
2022/08/11 06:30:12;;;;;;;2.75;2.50;;;20.90;52.80;;;;;;601411;239;26849;-63
2022/08/11 06:32:35;;;;;;;2.67;2.20;;;21.10;52.60;;;;;;600867;239;26588;-63
2022/08/11 06:35:27;;;;;;;2.58;2.37;;;21.10;52.50;;;;;;603078;237;26663;-64
2022/08/11 06:38:11;;;;;;;2.65;2.45;;;21.20;52.50;;;;;;602370;239;26633;-63
2022/08/11 06:41:29;;;;;;;2.75;2.35;;;21.40;52.50;;;;;;598579;239;26604;-63
2022/08/11 06:43:18;;;;;;;2.22;2.12;;;21.40;52.50;;;;;;600003;237;26612;-63
2022/08/11 06:46:05;;;;;;;2.53;2.33;;;21.50;52.10;;;;;;601743;239;26580;-63
2022/08/11 06:48:33;;;;;;;2.70;2.15;;;21.60;52.20;;;;;;601852;239;26572;-63
2022/08/11 06:53:36;;;;;;;2.30;2.17;;;21.80;51.70;;;;;;629617;225;26629;-63
2022/08/11 07:01:11;;;;;;;2.50;2.30;;;22.10;51.50;;;;;;628750;226;26804;-67
2022/08/11 07:03:37;;;;;;;2.67;2.00;;;22.20;51.40;;;;;;630336;221;26961;-68
2022/08/11 07:06:05;;;;;;;3.28;2.10;;;22.30;51.30;;;;;;629100;226;26564;-68
2022/08/11 07:17:07;;;;;;;2.80;2.60;;;22.80;50.50;;;;;;627511;226;26624;-69
2022/08/11 07:29:47;;;;;;;3.65;2.35;;;23.10;50.20;;;;;;628651;226;26583;-68
2022/08/11 07:32:15;;;;;;;2.95;2.45;;;23.20;50.10;;;;;;612043;234;26588;-67
2022/08/11 07:34:44;;;;;;;2.50;2.30;;;23.30;49.90;;;;;;612560;234;26570;-68
2022/08/11 07:37:16;;;;;;;6.10;2.87;;;23.50;49.50;;;;;;612501;230;26574;-65
2022/08/11 07:39:43;;;;;;;5.72;2.47;;;23.40;49.40;;;;;;616392;230;26632;-65
2022/08/11 07:42:10;;;;;;;3.25;2.20;;;23.60;49.50;;;;;;612628;234;26615;-63
2022/08/11 07:48:10;;;;;;;2.72;2.50;;;23.60;49.50;;;;;;627195;226;26617;-68
2022/08/11 07:54:43;;;;;;;6.62;2.47;;;23.90;49.10;;;;;;629543;226;26623;-67
2022/08/11 08:20:09;;;;;;;53.10;15.10;;;24.50;48.00;;;;;;625987;230;26549;-67
2022/08/11 08:22:35;;;;;;;19.23;4.12;;;24.60;47.20;;;;;;626483;225;26824;-68
2022/08/11 08:25:03;;;;;;;10.25;3.60;;;24.60;47.30;;;;;;631563;226;26809;-67
2022/08/11 08:27:30;;;;;;;12.65;4.32;;;24.70;47.30;;;;;;635543;226;26525;-67
2022/08/11 08:32:44;;;;;;;12.02;3.53;;;24.80;46.90;;;;;;631391;225;26616;-67
2022/08/11 08:35:11;;;;;;;4.03;2.65;;;24.90;46.80;;;;;;639182;225;27267;-67
2022/08/11 08:37:38;;;;;;;3.42;2.40;;;25.00;46.70;;;;;;639101;225;26609;-68
2022/08/11 08:40:07;;;;;;;4.87;3.30;;;25.10;46.50;;;;;;625361;229;26826;-67
2022/08/11 08:42:37;;;;;;;5.10;2.67;;;25.10;46.20;;;;;;625495;230;26583;-68
2022/08/11 08:45:05;;;;;;;4.15;2.65;;;25.20;46.40;;;;;;624616;230;26607;-67
2022/08/11 08:47:35;;;;;;;3.62;2.62;;;25.20;45.90;;;;;;625390;230;26646;-65
2022/08/11 08:50:02;;;;;;;4.53;2.50;;;25.30;45.50;;;;;;601243;239;26597;-65
2022/08/11 08:52:30;;;;;;;4.93;3.10;;;25.40;45.10;;;;;;627894;227;26534;-65
2022/08/11 08:54:57;;;;;;;6.57;3.40;;;25.40;45.10;;;;;;624487;230;26610;-65
2022/08/11 08:57:25;;;;;;;4.07;2.50;;;25.50;44.90;;;;;;625495;228;26604;-65
2022/08/11 08:59:52;;;;;;;3.33;2.20;;;25.50;44.60;;;;;;608034;233;26798;-65
2022/08/11 09:02:19;;;;;;;4.35;2.80;;;25.60;44.80;;;;;;629868;226;26583;-65
2022/08/11 09:04:47;;;;;;;7.37;3.30;;;25.70;44.00;;;;;;625566;230;26805;-65
2022/08/11 09:07:15;;;;;;;2.67;2.00;;;25.70;44.00;;;;;;625588;229;26781;-65
2022/08/11 09:09:43;;;;;;;5.57;2.45;;;25.80;44.40;;;;;;625522;224;26564;-66
2022/08/11 09:12:10;;;;;;;2.25;2.08;;;25.70;44.30;;;;;;625492;224;26560;-68
2022/08/11 09:17:11;;;;;;;5.00;2.70;;;26.00;43.80;;;;;;625163;230;26553;-66
2022/08/11 09:19:39;;;;;;;5.40;2.67;;;26.00;43.60;;;;;;625203;224;26512;-66
2022/08/11 09:27:13;;;;;;;2.55;2.20;;;26.10;44.40;;;;;;634520;226;26890;-66
2022/08/11 09:29:40;;;;;;;4.45;3.00;;;26.10;43.90;;;;;;634389;227;26515;-66
2022/08/11 09:32:07;;;;;;;4.30;2.62;;;26.20;43.10;;;;;;634472;222;26761;-66
2022/08/11 09:34:35;;;;;;;2.10;1.90;;;26.20;43.10;;;;;;634108;227;26636;-68
2022/08/11 09:42:09;;;;;;;1.90;1.80;;;26.30;42.80;;;;;;634158;227;26568;-68
2022/08/11 09:47:13;;;;;;;5.57;2.97;;;26.40;42.00;;;;;;630295;227;26578;-68
2022/08/11 09:49:36;;;;;;;2.72;1.85;;;26.40;41.90;;;;;;624559;230;26577;-67
2022/08/11 09:52:08;;;;;;;2.53;1.77;;;26.50;42.80;;;;;;601627;237;26562;-68
2022/08/11 09:54:32;;;;;;;1.92;1.83;;;26.50;42.20;;;;;;628018;225;26528;-68
2022/08/11 09:59:33;;;;;;;2.03;1.83;;;26.60;41.60;;;;;;614775;233;26619;-67
2022/08/11 10:02:00;;;;;;;4.65;2.30;;;26.50;42.10;;;;;;628213;229;26769;-69
2022/08/11 10:04:33;;;;;;;3.05;2.20;;;26.40;41.00;;;;;;628179;229;26532;-69
2022/08/11 10:07:00;;;;;;;6.80;3.60;;;26.50;41.50;;;;;;601208;239;26829;-69
2022/08/11 10:09:38;;;;;;;2.72;2.25;;;26.70;40.50;;;;;;603309;236;26580;-67
2022/08/11 10:12:06;;;;;;;5.18;3.70;;;26.60;40.60;;;;;;603531;238;26775;-69
2022/08/11 10:17:06;;;;;;;5.30;3.33;;;26.80;40.20;;;;;;603967;237;26627;-68
2022/08/11 10:19:36;;;;;;;6.30;3.15;;;26.80;39.90;;;;;;632337;226;26535;-69
2022/08/11 10:27:07;;;;;;;3.70;1.87;;;26.60;40.90;;;;;;632185;226;26602;-62
2022/08/11 10:34:44;;;;;;;5.28;2.45;;;27.00;40.60;;;;;;601432;237;26671;-65
2022/08/11 10:37:12;;;;;;;1.90;1.80;;;27.20;39.60;;;;;;602210;239;26578;-64
2022/08/11 10:39:39;;;;;;;1.75;1.65;;;27.50;38.60;;;;;;613248;235;26854;-65
2022/08/11 10:44:43;;;;;;;1.77;1.67;;;28.00;38.40;;;;;;602085;239;26853;-65
2022/08/11 10:49:43;;;;;;;2.60;1.80;;;28.10;38.70;;;;;;601977;239;26980;-64
2022/08/11 10:59:49;;;;;;;2.87;2.40;;;27.70;38.20;;;;;;601951;239;26578;-65
2022/08/11 11:02:17;;;;;;;1.70;1.60;;;27.70;38.30;;;;;;612854;235;26556;-68
2022/08/11 11:04:52;;;;;;;2.08;1.95;;;27.60;38.20;;;;;;602022;239;26597;-65
2022/08/11 11:07:21;;;;;;;1.73;1.62;;;27.70;38.00;;;;;;612646;230;26563;-65
2022/08/11 11:09:50;;;;;;;3.25;2.20;;;27.90;38.40;;;;;;601976;239;26571;-65
2022/08/11 11:19:59;;;;;;;2.20;2.00;;;28.00;37.10;;;;;;602794;237;26558;-65
2022/08/11 11:25:02;;;;;;;1.20;1.20;;;28.40;37.80;;;;;;603258;238;26593;-64
2022/08/11 11:27:32;;;;;;;1.60;1.50;;;28.60;37.50;;;;;;613589;234;26758;-64
2022/08/11 11:30:00;;;;;;;1.80;1.70;;;28.80;37.80;;;;;;601886;237;26832;-65
2022/08/11 11:32:30;;;;;;;1.50;1.40;;;28.90;36.80;;;;;;613295;234;26548;-64
2022/08/11 11:35:25;;;;;;;1.77;1.70;;;29.20;37.70;;;;;;602020;239;26638;-65
2022/08/11 11:37:51;;;;;;;2.22;2.12;;;29.50;36.40;;;;;;592480;239;26699;-65
2022/08/11 11:40:21;;;;;;;2.08;1.60;;;29.60;35.40;;;;;;615328;234;26572;-65
2022/08/11 11:42:49;;;;;;;1.58;1.48;;;29.60;35.40;;;;;;613166;235;26641;-65
2022/08/11 11:45:18;;;;;;;1.85;1.75;;;29.60;35.70;;;;;;602204;239;26569;-65
2022/08/11 11:47:45;;;;;;;1.60;1.50;;;29.70;36.00;;;;;;613171;233;26610;-65
2022/08/11 11:50:12;;;;;;;2.00;1.90;;;29.80;35.30;;;;;;601591;239;26627;-65
2022/08/11 11:52:39;;;;;;;2.70;2.50;;;29.80;35.10;;;;;;614371;230;26865;-64
2022/08/11 11:55:08;;;;;;;8.80;2.12;;;29.80;36.70;;;;;;635100;226;26607;-64
2022/08/11 12:02:43;;;;;;;4.18;2.30;;;29.70;35.00;;;;;;616876;230;26532;-65
2022/08/11 12:05:10;;;;;;;2.40;2.10;;;29.70;35.50;;;;;;625307;230;26565;-65
2022/08/11 12:10:10;;;;;;;4.50;2.42;;;29.60;35.30;;;;;;625585;230;26861;-63
2022/08/11 12:15:12;;;;;;;2.45;2.25;;;29.80;34.20;;;;;;625618;230;26598;-64
2022/08/11 12:17:38;;;;;;;2.83;2.20;;;29.90;35.10;;;;;;625522;230;26696;-62
2022/08/11 12:20:07;;;;;;;3.62;2.50;;;29.90;35.70;;;;;;625571;230;26586;-63
2022/08/11 12:27:43;;;;;;;2.90;2.30;;;30.20;34.40;;;;;;601401;239;26607;-62
2022/08/11 12:30:11;;;;;;;4.60;2.40;;;30.20;35.70;;;;;;628160;229;26544;-63
2022/08/11 12:32:40;;;;;;;2.53;2.05;;;30.40;33.90;;;;;;626074;228;26577;-62
2022/08/11 12:35:07;;;;;;;4.43;2.20;;;30.40;34.60;;;;;;625818;229;26569;-62
2022/08/11 12:37:38;;;;;;;2.40;2.20;;;30.70;33.60;;;;;;602276;237;26590;-63
2022/08/11 12:52:52;;;;;;;2.20;2.10;;;31.90;33.20;;;;;;625346;226;26489;-63
2022/08/11 12:58:14;;;;;;;3.12;2.55;;;32.10;33.40;;;;;;625217;230;26774;-62
2022/08/11 13:05:31;;;;;;;2.45;2.10;;;32.90;30.70;;;;;;625004;230;26532;-62
2022/08/11 13:07:57;;;;;;;2.42;2.20;;;33.20;31.20;;;;;;624725;230;26529;-62
2022/08/11 13:12:57;;;;;;;1.77;1.67;;;33.60;30.60;;;;;;624680;230;26814;-63
2022/08/11 13:15:24;;;;;;;1.62;1.52;;;34.10;30.00;;;;;;624735;230;26594;-63
2022/08/11 13:17:52;;;;;;;2.35;2.15;;;34.40;29.70;;;;;;624699;230;26802;-65
2022/08/11 13:20:20;;;;;;;2.65;2.17;;;34.80;30.10;;;;;;624672;230;26620;-65
2022/08/11 13:22:48;;;;;;;2.20;2.03;;;35.20;29.60;;;;;;624661;229;26922;-65
2022/08/11 13:25:15;;;;;;;1.90;1.80;;;35.80;29.40;;;;;;624652;230;26592;-64
2022/08/11 13:27:42;;;;;;;3.53;1.87;;;36.20;29.10;;;;;;624851;230;26586;-65
2022/08/11 13:32:44;;;;;;;1.98;1.87;;;37.10;27.90;;;;;;624701;230;26606;-65
2022/08/11 13:35:13;;;;;;;2.22;2.00;;;37.30;28.20;;;;;;624600;230;26607;-65
2022/08/11 13:37:39;;;;;;;2.70;2.10;;;38.30;28.40;;;;;;624553;230;26613;-65
2022/08/11 13:40:08;;;;;;;1.73;1.62;;;38.20;28.40;;;;;;624690;230;26623;-65
2022/08/11 13:42:35;;;;;;;1.95;1.85;;;38.70;27.70;;;;;;624829;228;26588;-66
2022/08/11 13:45:05;;;;;;;2.28;1.77;;;39.10;26.40;;;;;;626397;229;27028;-65
2022/08/11 13:47:32;;;;;;;7.03;2.25;;;39.50;26.40;;;;;;626500;229;26591;-65
2022/08/11 13:49:58;;;;;;;1.30;1.30;;;40.30;27.30;;;;;;626478;230;26514;-64
2022/08/11 13:52:27;;;;;;;1.95;1.67;;;40.60;25.10;;;;;;626336;229;26543;-64
2022/08/11 13:54:54;;;;;;;2.10;1.90;;;40.60;25.00;;;;;;625490;226;26750;-64
2022/08/11 13:57:22;;;;;;;2.55;1.67;;;41.30;25.20;;;;;;625298;230;26536;-65
2022/08/11 13:59:53;;;;;;;2.17;1.98;;;42.60;25.30;;;;;;625315;229;26747;-65
2022/08/11 14:02:19;;;;;;;2.67;1.67;;;44.90;23.90;;;;;;624957;229;26545;-66
2022/08/11 14:04:49;;;;;;;2.40;1.80;;;48.80;23.50;;;;;;624711;230;26593;-66
2022/08/11 14:07:16;;;;;;;1.77;1.33;;;52.00;21.60;;;;;;624725;230;26537;-65
2022/08/11 14:09:43;;;;;;;1.50;1.40;;;53.70;21.10;;;;;;624920;230;26777;-66
2022/08/11 14:14:47;;;;;;;1.92;1.77;;;52.70;20.10;;;;;;624953;230;26568;-66
2022/08/11 14:17:14;;;;;;;3.60;1.73;;;52.60;20.10;;;;;;624661;230;26532;-66
2022/08/11 14:19:41;;;;;;;1.87;1.73;;;46.70;21.20;;;;;;624738;230;26776;-66
2022/08/11 14:22:10;;;;;;;3.72;1.90;;;39.00;23.70;;;;;;624599;230;26592;-66
2022/08/11 14:24:38;;;;;;;2.12;1.67;;;37.20;24.80;;;;;;624467;230;26615;-66
2022/08/11 14:27:07;;;;;;;2.97;2.20;;;36.00;25.70;;;;;;624703;230;26579;-65
2022/08/11 14:29:37;;;;;;;2.60;1.58;;;35.90;25.60;;;;;;624703;230;26746;-66
2022/08/11 14:32:01;;;;;;;1.40;1.30;;;35.00;26.40;;;;;;624292;230;26596;-65
2022/08/11 14:34:29;;;;;;;1.55;1.45;;;33.60;25.60;;;;;;624610;230;26843;-65
2022/08/11 14:36:56;;;;;;;1.50;1.40;;;33.50;25.60;;;;;;624739;230;26803;-66
2022/08/11 14:39:23;;;;;;;1.80;1.37;;;33.10;25.90;;;;;;624289;230;26598;-66
2022/08/11 14:47:04;;;;;;;1.73;1.62;;;32.30;27.40;;;;;;625172;230;27267;-67
2022/08/11 14:49:33;;;;;;;1.60;1.48;;;32.10;28.10;;;;;;625124;230;26608;-67
2022/08/11 14:51:59;;;;;;;1.90;1.80;;;31.90;27.70;;;;;;625058;230;26602;-67
2022/08/11 14:57:02;;;;;;;3.00;1.52;;;31.50;28.10;;;;;;627242;229;26850;-67
2022/08/11 14:59:27;;;;;;;2.87;1.37;;;31.30;28.30;;;;;;626670;229;26573;-67
2022/08/11 15:04:28;;;;;;;2.75;1.77;;;31.10;28.00;;;;;;626363;229;26535;-67
2022/08/11 15:06:55;;;;;;;1.50;1.40;;;31.10;28.30;;;;;;626144;230;26589;-68
2022/08/11 15:09:23;;;;;;;1.40;1.30;;;31.00;28.20;;;;;;626191;229;26580;-66
2022/08/11 15:19:30;;;;;;;3.20;1.30;;;30.50;27.50;;;;;;625887;230;26562;-66
2022/08/11 15:24:32;;;;;;;1.40;1.30;;;30.40;28.60;;;;;;625894;230;26541;-67
2022/08/11 15:47:29;;;;;;;1.92;1.23;;;30.00;27.80;;;;;;624898;230;26840;-66
2022/08/11 15:49:57;;;;;;;2.22;1.50;;;30.00;28.70;;;;;;624324;230;26598;-66
2022/08/11 15:52:25;;;;;;;2.67;1.50;;;30.00;28.10;;;;;;624623;230;27225;-66
2022/08/11 15:54:52;;;;;;;1.80;1.00;;;29.90;28.10;;;;;;624512;230;26890;-66
2022/08/11 16:05:09;;;;;;;1.42;1.15;;;29.70;28.70;;;;;;624691;230;26557;-65
2022/08/11 16:07:37;;;;;;;1.12;1.10;;;29.70;27.60;;;;;;627587;226;26804;-65
2022/08/11 16:10:09;;;;;;;0.98;0.98;;;29.70;28.30;;;;;;634138;225;26544;-65
2022/08/11 16:12:40;;;;;;;1.70;1.25;;;29.70;28.00;;;;;;629131;226;26510;-65
2022/08/11 16:17:54;;;;;;;1.75;1.40;;;29.40;28.10;;;;;;630099;226;26573;-65
2022/08/11 16:20:31;;;;;;;1.85;1.48;;;29.30;28.00;;;;;;629674;225;26604;-65
2022/08/11 16:23:01;;;;;;;1.27;1.27;;;29.30;27.80;;;;;;628824;225;26614;-65
2022/08/11 16:25:40;;;;;;;1.85;1.52;;;29.30;29.60;;;;;;628338;226;26957;-63
2022/08/11 16:28:15;;;;;;;1.50;1.40;;;29.40;28.20;;;;;;627966;226;26522;-65
2022/08/11 16:30:54;;;;;;;1.52;1.42;;;29.40;28.10;;;;;;629433;225;26598;-66
2022/08/11 16:33:28;;;;;;;1.25;1.17;;;29.40;28.30;;;;;;625841;230;26549;-65
2022/08/11 16:46:59;;;;;;;1.80;1.70;;;28.90;28.00;;;;;;624732;230;26569;-66
2022/08/11 16:49:35;;;;;;;2.22;1.75;;;29.00;29.00;;;;;;624779;230;26794;-66
2022/08/11 16:52:13;;;;;;;1.55;1.45;;;29.10;28.50;;;;;;624639;230;26505;-66
2022/08/11 16:54:48;;;;;;;2.37;1.33;;;29.10;28.50;;;;;;624863;230;26555;-67
2022/08/11 17:00:11;;;;;;;1.33;1.33;;;29.10;28.10;;;;;;624631;230;26628;-66
2022/08/11 17:13:59;;;;;;;1.30;1.20;;;29.20;28.60;;;;;;624991;230;26611;-67
2022/08/11 17:16:36;;;;;;;2.83;1.75;;;29.00;28.80;;;;;;629131;225;27097;-67
2022/08/11 17:19:29;;;;;;;4.30;1.67;;;28.80;29.10;;;;;;636788;224;26544;-66
2022/08/11 17:25:02;;;;;;;5.97;1.67;;;28.70;28.40;;;;;;634963;222;26569;-66
2022/08/11 17:27:36;;;;;;;4.20;1.40;;;28.70;28.90;;;;;;634936;226;26580;-67
2022/08/11 17:30:07;;;;;;;1.70;1.42;;;28.60;28.90;;;;;;631922;227;26836;-67
2022/08/11 17:35:59;;;;;;;1.85;1.20;;;28.50;28.50;;;;;;635834;225;26829;-67
2022/08/11 17:38:22;;;;;;;1.30;1.20;;;28.40;29.10;;;;;;633193;227;26556;-67
2022/08/11 18:00:27;;;;;;;1.77;1.30;;;26.90;30.40;;;;;;634157;227;26550;-65
2022/08/11 18:05:49;;;;;;;1.37;1.27;;;26.60;30.70;;;;;;634111;226;26568;-66
